Time;durP1;ratioP1;P1;durP2;ratioP2;P2;SDS_P1;SDS_P2;PMS_P1;PMS_P2;Temp;Humidity;BMP_temperature;BMP_pressure;BME280_temperature;BME280_humidity;BME280_pressure;Samples;Min_cycle;Max_cycle;Signal;HPM_P1;HPM_P2
2020/12/27 00:00:45;;;;;;;9.75;6.78;;;;;;;9.46;60.85;93827.06;5023318;28;20055;-74
2020/12/27 00:03:11;;;;;;;10.75;6.97;;;;;;;9.49;61.24;93829.94;5021061;28;20041;-75
2020/12/27 00:05:36;;;;;;;10.27;6.55;;;;;;;9.48;61.12;93825.72;5017912;28;20125;-75
2020/12/27 00:08:02;;;;;;;10.88;6.50;;;;;;;9.49;61.54;93843.13;5019483;28;20077;-75
2020/12/27 00:10:27;;;;;;;18.55;9.63;;;;;;;9.48;61.60;93830.22;5016439;28;20407;-75
2020/12/27 00:12:53;;;;;;;8.73;6.85;;;;;;;9.48;61.28;93835.50;5005257;28;20029;-75
2020/12/27 00:15:18;;;;;;;7.68;5.40;;;;;;;9.46;61.14;93833.13;5016442;28;20924;-75
2020/12/27 00:17:46;;;;;;;11.25;6.43;;;;;;;9.46;61.10;93837.63;5018118;28;20148;-75
2020/12/27 00:20:12;;;;;;;6.65;5.70;;;;;;;9.45;61.47;93839.47;5017810;28;20047;-74
2020/12/27 00:22:37;;;;;;;9.60;7.28;;;;;;;9.45;61.14;93841.31;5016738;28;20045;-74
2020/12/27 00:25:04;;;;;;;10.98;6.20;;;;;;;9.45;61.15;93830.78;5022356;28;20105;-75
2020/12/27 00:27:29;;;;;;;8.52;7.10;;;;;;;9.42;60.88;93831.34;4998467;28;20076;-75
2020/12/27 00:29:55;;;;;;;14.10;6.68;;;;;;;9.45;61.30;93836.03;5002725;28;20041;-75
2020/12/27 00:32:21;;;;;;;12.10;8.95;;;;;;;9.41;61.43;93822.63;5018743;28;20573;-75
2020/12/27 00:34:46;;;;;;;7.57;6.20;;;;;;;9.40;61.27;93817.63;5018707;28;20026;-75
2020/12/27 00:37:12;;;;;;;9.18;6.38;;;;;;;9.42;61.36;93820.78;5018155;28;20084;-75
2020/12/27 00:39:37;;;;;;;11.60;6.72;;;;;;;9.43;61.43;93819.72;5022762;28;20452;-75
2020/12/27 00:42:03;;;;;;;7.35;5.93;;;;;;;9.42;60.71;93820.78;5018134;28;20041;-75
2020/12/27 00:44:29;;;;;;;7.38;6.15;;;;;;;9.46;60.83;93824.44;4995546;28;20073;-75
2020/12/27 00:46:55;;;;;;;7.00;5.75;;;;;;;9.46;60.64;93825.22;5020080;28;20057;-74
2020/12/27 00:49:22;;;;;;;10.63;6.78;;;;;;;9.47;60.60;93828.66;5021565;28;20029;-74
2020/12/27 00:51:49;;;;;;;10.23;6.95;;;;;;;9.41;60.77;93825.28;5003578;28;20025;-75
2020/12/27 00:54:15;;;;;;;10.25;7.80;;;;;;;9.39;60.66;93830.03;5020512;28;20386;-74
2020/12/27 00:56:40;;;;;;;9.63;7.63;;;;;;;9.35;61.03;93815.06;5020785;28;20037;-74
2020/12/27 00:59:06;;;;;;;9.75;6.75;;;;;;;9.39;61.22;93826.59;5020477;28;20041;-75
2020/12/27 01:01:32;;;;;;;11.63;8.32;;;;;;;9.32;61.48;93819.03;5020181;28;20038;-75
2020/12/27 01:03:57;;;;;;;15.20;10.88;;;;;;;9.22;61.63;93805.19;5020907;28;20495;-75
2020/12/27 01:06:24;;;;;;;14.48;9.32;;;;;;;9.35;61.50;93825.59;5020880;28;20041;-75
2020/12/27 01:08:50;;;;;;;14.23;10.18;;;;;;;9.36;61.57;93825.31;5019024;28;20034;-76
2020/12/27 01:11:16;;;;;;;12.63;8.00;;;;;;;9.32;61.33;93810.34;5019517;28;20033;-76
2020/12/27 01:13:42;;;;;;;16.42;10.70;;;;;;;9.35;61.46;93815.06;5023494;28;20665;-75
2020/12/27 01:16:18;;;;;;;24.77;17.42;;;;;;;9.36;61.81;93819.25;5021661;28;20026;-76
2020/12/27 01:18:48;;;;;;;29.95;19.65;;;;;;;9.29;62.07;93816.16;5025474;28;20386;-76
2020/12/27 01:21:27;;;;;;;21.73;13.43;;;;;;;9.30;62.47;93817.75;5023255;28;20756;-76
2020/12/27 01:23:53;;;;;;;18.05;12.10;;;;;;;9.27;62.13;93813.03;5019999;28;20044;-75
2020/12/27 01:26:33;;;;;;;17.23;11.48;;;;;;;9.25;61.99;93812.50;5020528;28;20041;-76
2020/12/27 01:28:59;;;;;;;17.02;12.10;;;;;;;9.23;62.54;93804.91;5024777;28;20033;-76
2020/12/27 01:31:24;;;;;;;14.32;8.88;;;;;;;9.23;62.22;93798.84;5002517;28;20029;-76
2020/12/27 01:33:50;;;;;;;13.82;10.02;;;;;;;9.26;62.53;93806.19;5023973;28;20115;-75
2020/12/27 01:36:31;;;;;;;11.52;9.98;;;;;;;9.17;63.01;93806.00;5023437;28;20029;-75
2020/12/27 01:38:58;;;;;;;12.23;8.52;;;;;;;9.16;62.96;93811.56;5021345;28;20034;-75
2020/12/27 01:41:24;;;;;;;11.25;8.13;;;;;;;9.10;63.06;93802.91;5019601;28;20045;-76
2020/12/27 01:44:07;;;;;;;13.68;8.57;;;;;;;9.05;63.58;93790.56;5023201;28;20076;-76
2020/12/27 01:46:35;;;;;;;22.40;14.18;;;;;;;9.10;63.99;93795.00;5021857;28;20102;-76
2020/12/27 01:49:02;;;;;;;26.48;16.25;;;;;;;9.02;63.82;93783.22;5023577;28;20021;-75
2020/12/27 01:51:28;;;;;;;17.05;11.00;;;;;;;8.96;63.90;93779.06;5020049;28;20045;-75
2020/12/27 01:53:54;;;;;;;12.70;7.70;;;;;;;8.93;64.04;93778.84;5022358;28;20034;-75
2020/12/27 01:56:27;;;;;;;11.82;8.88;;;;;;;8.91;64.19;93773.84;5017108;28;20465;-75
2020/12/27 01:58:58;;;;;;;19.48;10.07;;;;;;;8.84;64.50;93772.59;5022821;28;20127;-76
2020/12/27 02:01:24;;;;;;;16.08;10.50;;;;;;;8.82;64.61;93780.00;5021826;28;20040;-75
2020/12/27 02:03:50;;;;;;;12.68;7.70;;;;;;;8.80;64.92;93768.94;5023957;28;20025;-75
2020/12/27 02:06:16;;;;;;;9.55;7.45;;;;;;;8.77;65.07;93769.50;5019627;28;20470;-75
2020/12/27 02:08:43;;;;;;;9.35;7.30;;;;;;;8.78;65.00;93766.59;5006674;28;20037;-75
2020/12/27 02:11:08;;;;;;;9.45;6.68;;;;;;;8.77;64.85;93761.59;5022456;28;20084;-75
2020/12/27 02:13:33;;;;;;;12.50;7.47;;;;;;;8.74;65.21;93752.41;5020901;28;20053;-76
2020/12/27 02:15:59;;;;;;;10.35;6.72;;;;;;;8.76;65.38;93760.00;5024481;28;20024;-75
2020/12/27 02:18:25;;;;;;;9.48;7.85;;;;;;;8.73;65.71;93756.09;5023355;28;20088;-75
2020/12/27 02:20:51;;;;;;;9.15;6.85;;;;;;;8.71;66.01;93758.22;5020950;28;20050;-76
2020/12/27 02:23:17;;;;;;;8.18;6.65;;;;;;;8.63;66.07;93751.72;5022414;28;20054;-76
2020/12/27 02:25:43;;;;;;;9.30;6.53;;;;;;;8.65;66.14;93757.47;5020263;28;20049;-76
2020/12/27 02:28:09;;;;;;;11.52;8.93;;;;;;;8.63;66.42;93750.91;5021898;28;20025;-75
2020/12/27 02:30:34;;;;;;;16.92;13.70;;;;;;;8.60;66.54;93743.56;5023509;28;20074;-76
2020/12/27 02:33:00;;;;;;;17.33;12.63;;;;;;;8.59;66.62;93739.38;5020281;28;20521;-75
2020/12/27 02:35:25;;;;;;;16.73;11.95;;;;;;;8.59;66.93;93742.00;5007904;28;20037;-75
2020/12/27 02:37:51;;;;;;;15.50;9.60;;;;;;;8.59;66.96;93739.38;5017290;28;20428;-75
2020/12/27 02:40:16;;;;;;;12.10;8.40;;;;;;;8.58;67.01;93737.78;5018748;28;20111;-75
2020/12/27 02:42:42;;;;;;;15.65;8.20;;;;;;;8.54;67.10;93731.50;5022560;28;20017;-76
2020/12/27 02:45:10;;;;;;;11.23;7.65;;;;;;;8.51;67.22;93732.03;5022156;28;20057;-76
2020/12/27 02:47:39;;;;;;;12.57;8.40;;;;;;;8.47;67.48;93729.19;5019914;28;20044;-75
2020/12/27 02:50:10;;;;;;;10.57;8.30;;;;;;;8.50;67.69;93725.22;5004364;28;20037;-75
2020/12/27 02:52:37;;;;;;;14.10;9.20;;;;;;;8.46;67.97;93732.09;5019043;28;21076;-75
2020/12/27 02:55:03;;;;;;;10.80;8.82;;;;;;;8.42;68.14;93738.97;5021255;28;20021;-75
2020/12/27 02:57:28;;;;;;;13.25;9.07;;;;;;;8.39;68.32;93731.63;5018565;28;20049;-76
2020/12/27 02:59:54;;;;;;;14.20;8.98;;;;;;;8.37;68.55;93721.38;5021240;28;20456;-75
2020/12/27 03:02:19;;;;;;;13.30;9.30;;;;;;;8.37;68.75;93710.03;5021456;28;20153;-76
2020/12/27 03:04:45;;;;;;;13.70;10.18;;;;;;;8.47;68.60;93725.75;5020492;28;20087;-75
2020/12/27 03:07:10;;;;;;;17.23;11.73;;;;;;;8.41;68.76;93706.59;5000198;28;20033;-75
2020/12/27 03:09:36;;;;;;;20.48;13.07;;;;;;;8.44;69.03;93728.97;5024302;28;20029;-76
2020/12/27 03:12:01;;;;;;;25.67;15.98;;;;;;;8.40;70.08;93720.03;5020016;28;20084;-76
2020/12/27 03:14:27;;;;;;;20.60;13.75;;;;;;;8.36;69.93;93724.28;5020863;28;20040;-75
2020/12/27 03:16:52;;;;;;;26.60;16.27;;;;;;;8.28;69.75;93718.53;5020126;28;20037;-76
2020/12/27 03:19:18;;;;;;;23.02;16.92;;;;;;;8.32;69.87;93721.41;5003155;28;20029;-75
2020/12/27 03:21:43;;;;;;;21.23;15.07;;;;;;;8.34;69.73;93710.63;5021591;28;20037;-76
2020/12/27 03:24:09;;;;;;;18.33;15.38;;;;;;;8.38;69.86;93717.69;5018547;28;20041;-75
2020/12/27 03:26:34;;;;;;;24.15;16.63;;;;;;;8.36;69.94;93721.63;4994625;28;20068;-75
2020/12/27 03:29:00;;;;;;;19.92;15.18;;;;;;;8.37;70.05;93728.47;5020164;28;20041;-75
2020/12/27 03:31:25;;;;;;;20.10;14.88;;;;;;;8.28;70.25;93723.00;5018497;28;20041;-75
2020/12/27 03:33:51;;;;;;;21.75;15.50;;;;;;;8.34;70.18;93727.19;5023207;28;20042;-76
2020/12/27 03:36:16;;;;;;;23.65;16.05;;;;;;;8.33;70.17;93715.09;5020707;28;20124;-76
2020/12/27 03:38:42;;;;;;;19.88;13.60;;;;;;;8.30;70.46;93714.88;5017727;28;20518;-76
2020/12/27 03:41:07;;;;;;;23.02;15.30;;;;;;;8.38;70.56;93722.94;5018095;28;20034;-76
2020/12/27 03:43:33;;;;;;;34.33;21.35;;;;;;;8.39;70.45;93711.34;5018561;28;20044;-75
2020/12/27 03:45:58;;;;;;;23.83;16.50;;;;;;;8.42;70.56;93720.53;5021592;28;20036;-76
2020/12/27 03:48:24;;;;;;;33.00;22.30;;;;;;;8.41;70.42;93711.84;5019624;28;20472;-75
2020/12/27 03:50:49;;;;;;;25.92;17.25;;;;;;;8.39;70.82;93718.47;5020753;28;20127;-75
2020/12/27 03:53:15;;;;;;;27.55;18.13;;;;;;;8.32;71.04;93704.81;5017785;28;20068;-76
2020/12/27 03:55:40;;;;;;;23.92;15.45;;;;;;;8.34;71.22;93707.97;5018658;28;20045;-75
2020/12/27 03:58:06;;;;;;;26.15;16.17;;;;;;;8.37;71.00;93712.69;5019367;28;20037;-76
2020/12/27 04:00:32;;;;;;;25.77;15.68;;;;;;;8.32;71.31;93708.25;5005559;28;20032;-75
2020/12/27 04:02:57;;;;;;;25.55;16.05;;;;;;;8.37;71.52;93716.09;5018747;28;20038;-75
2020/12/27 04:05:23;;;;;;;29.85;17.05;;;;;;;8.41;71.45;93711.84;5015893;28;20059;-75
2020/12/27 04:07:49;;;;;;;26.77;16.50;;;;;;;8.46;71.15;93708.38;5019142;28;20052;-75
2020/12/27 04:10:15;;;;;;;27.42;15.52;;;;;;;8.49;71.13;93697.31;5019127;28;20021;-76
2020/12/27 04:12:41;;;;;;;23.75;15.63;;;;;;;8.55;70.96;93702.25;5018513;28;20036;-75
2020/12/27 04:15:06;;;;;;;23.30;16.48;;;;;;;8.56;71.06;93709.09;5018071;28;20912;-76
2020/12/27 04:17:32;;;;;;;28.45;16.52;;;;;;;8.59;71.13;93710.41;5019371;28;20402;-76
2020/12/27 04:19:57;;;;;;;20.63;15.15;;;;;;;8.64;70.92;93711.13;5018382;28;20083;-76
2020/12/27 04:22:22;;;;;;;26.20;16.55;;;;;;;8.61;71.17;93705.63;5016129;28;20501;-76
2020/12/27 04:24:48;;;;;;;25.15;16.73;;;;;;;8.60;71.15;93714.59;5021520;28;20025;-76
2020/12/27 04:27:13;;;;;;;26.20;17.55;;;;;;;8.53;71.90;93695.69;5017522;28;20047;-75
2020/12/27 04:29:39;;;;;;;25.67;16.70;;;;;;;8.58;71.72;93711.44;5017370;28;20041;-75
2020/12/27 04:32:04;;;;;;;24.85;16.83;;;;;;;8.54;71.89;93702.53;5018069;28;20049;-75
2020/12/27 04:34:30;;;;;;;30.02;17.25;;;;;;;8.54;72.03;93713.06;5019532;28;20037;-75
2020/12/27 04:36:55;;;;;;;22.35;15.63;;;;;;;8.55;72.08;93706.75;5022229;28;20033;-76
2020/12/27 04:39:21;;;;;;;24.23;16.35;;;;;;;8.59;72.11;93707.75;5019472;28;20034;-76
2020/12/27 04:41:46;;;;;;;25.80;17.52;;;;;;;8.63;71.92;93706.94;5015712;28;20091;-75
2020/12/27 04:44:13;;;;;;;60.78;21.83;;;;;;;8.63;72.23;93709.56;5019224;28;20045;-76
2020/12/27 04:46:41;;;;;;;20.98;13.20;;;;;;;8.65;72.18;93707.41;5021079;28;20037;-75
2020/12/27 04:49:08;;;;;;;26.25;16.27;;;;;;;8.63;72.44;93698.22;5022308;28;20029;-76
2020/12/27 04:51:35;;;;;;;20.70;13.35;;;;;;;8.61;72.73;93701.13;5023367;28;20025;-75
2020/12/27 04:54:00;;;;;;;17.88;12.98;;;;;;;8.67;72.71;93700.03;5021080;28;20065;-76
2020/12/27 04:56:26;;;;;;;18.73;11.52;;;;;;;8.66;73.06;93703.72;5023086;28;20098;-76
2020/12/27 04:58:56;;;;;;;18.63;12.25;;;;;;;8.61;73.48;93702.97;5020991;28;20104;-75
2020/12/27 05:01:22;;;;;;;18.75;13.32;;;;;;;8.59;73.78;93700.66;5019104;28;20024;-75
2020/12/27 05:03:50;;;;;;;18.52;13.90;;;;;;;8.57;73.69;93701.97;5006675;28;20029;-75
2020/12/27 05:06:16;;;;;;;21.83;14.48;;;;;;;8.60;73.41;93698.81;5023373;28;20076;-76
2020/12/27 05:08:46;;;;;;;20.85;13.85;;;;;;;8.57;73.46;93694.06;5021904;28;20041;-75
2020/12/27 05:11:16;;;;;;;19.10;13.13;;;;;;;8.59;73.29;93698.00;5019218;28;20041;-76
2020/12/27 05:13:45;;;;;;;18.98;13.25;;;;;;;8.65;73.51;93696.09;5021048;28;20041;-76
2020/12/27 05:16:15;;;;;;;23.55;12.63;;;;;;;8.63;73.77;93698.22;5021147;28;20021;-75
2020/12/27 05:18:43;;;;;;;15.20;10.95;;;;;;;8.69;73.62;93697.13;5021586;28;20586;-75
2020/12/27 05:21:09;;;;;;;15.45;9.98;;;;;;;8.62;73.68;93700.09;5021873;28;20585;-74
2020/12/27 05:23:37;;;;;;;14.40;9.52;;;;;;;8.64;73.71;93697.97;5020855;28;20123;-75
2020/12/27 05:26:06;;;;;;;13.18;9.07;;;;;;;8.57;73.98;93689.59;5005420;28;20073;-75
2020/12/27 05:28:33;;;;;;;14.13;8.73;;;;;;;8.52;73.95;93705.44;5019251;28;20103;-75
2020/12/27 05:31:09;;;;;;;11.50;8.57;;;;;;;8.61;74.04;93689.81;5024182;28;20029;-76
2020/12/27 05:33:37;;;;;;;12.13;8.07;;;;;;;8.60;74.21;93694.28;5022244;28;20164;-75
2020/12/27 05:36:03;;;;;;;11.95;8.18;;;;;;;8.51;74.46;93695.19;5021881;28;20040;-75
2020/12/27 05:38:30;;;;;;;13.43;7.90;;;;;;;8.56;74.32;93697.75;5022333;28;20042;-75
2020/12/27 05:40:55;;;;;;;13.23;7.93;;;;;;;8.54;74.66;93684.09;5018679;28;20049;-75
2020/12/27 05:43:21;;;;;;;9.65;7.15;;;;;;;8.50;74.56;93683.09;5003327;28;20445;-75
2020/12/27 05:45:47;;;;;;;11.57;7.40;;;;;;;8.44;74.85;93684.19;5025473;28;20527;-75
2020/12/27 05:48:12;;;;;;;12.10;7.32;;;;;;;8.43;75.01;93693.16;5019299;28;20038;-76
2020/12/27 05:50:40;;;;;;;12.95;8.75;;;;;;;8.43;74.81;93687.88;5004947;28;20041;-75
2020/12/27 05:53:24;;;;;;;8.48;6.80;;;;;;;8.30;75.33;93678.78;5018287;28;20650;-75
2020/12/27 05:55:51;;;;;;;10.38;7.22;;;;;;;8.32;75.25;93670.59;5019901;28;20057;-75
2020/12/27 05:58:22;;;;;;;14.68;8.02;;;;;;;8.33;75.42;93672.19;5000964;28;20024;-75
2020/12/27 06:00:54;;;;;;;9.23;7.13;;;;;;;8.29;75.77;93677.19;5010476;28;20033;-75
2020/12/27 06:03:24;;;;;;;12.30;7.90;;;;;;;8.26;75.60;93670.63;5016933;28;20037;-75
2020/12/27 06:06:08;;;;;;;10.32;7.82;;;;;;;8.25;75.58;93669.06;5019129;28;20073;-76
2020/12/27 06:08:52;;;;;;;10.90;7.53;;;;;;;8.22;75.61;93682.75;5016750;28;20061;-75
2020/12/27 06:11:36;;;;;;;12.88;8.65;;;;;;;8.21;75.75;93675.13;5016209;28;20060;-75
2020/12/27 06:14:14;;;;;;;9.45;8.45;;;;;;;8.20;76.02;93677.00;5001273;28;20037;-75
2020/12/27 06:16:45;;;;;;;11.10;9.02;;;;;;;8.18;76.10;93681.75;5019014;28;20144;-75
2020/12/27 06:19:26;;;;;;;10.65;8.70;;;;;;;8.15;76.46;93681.53;5020088;28;20100;-76
2020/12/27 06:22:08;;;;;;;16.85;10.35;;;;;;;8.21;76.26;93681.19;5008362;28;20065;-75
2020/12/27 06:24:35;;;;;;;14.32;9.00;;;;;;;8.22;76.30;93674.06;5021429;28;20060;-75
2020/12/27 06:27:02;;;;;;;10.85;7.85;;;;;;;8.12;76.35;93677.56;5018766;28;20493;-75
2020/12/27 06:29:45;;;;;;;13.98;8.40;;;;;;;8.13;76.70;93668.63;5021499;28;20216;-76
2020/12/27 06:32:15;;;;;;;12.57;9.18;;;;;;;8.18;76.59;93675.69;5020432;28;20052;-76
2020/12/27 06:34:40;;;;;;;12.93;8.00;;;;;;;8.10;76.64;93686.81;5018582;28;20045;-76
2020/12/27 06:37:07;;;;;;;12.63;7.53;;;;;;;8.09;76.79;93678.13;5020361;28;20048;-75
2020/12/27 06:39:32;;;;;;;13.80;8.18;;;;;;;8.04;76.96;93670.28;5021559;28;20059;-76
2020/12/27 06:42:16;;;;;;;11.90;8.43;;;;;;;8.06;76.96;93665.50;5015373;28;20069;-75
2020/12/27 06:44:44;;;;;;;11.77;8.80;;;;;;;7.93;77.11;93647.72;5018113;28;20485;-75
2020/12/27 06:47:11;;;;;;;11.40;8.63;;;;;;;7.94;76.88;93641.41;5019965;28;21069;-75
2020/12/27 06:49:37;;;;;;;15.02;8.68;;;;;;;7.93;77.24;93652.22;5019920;28;20375;-76
2020/12/27 06:52:23;;;;;;;14.48;9.20;;;;;;;7.87;77.70;93658.59;5021930;28;20504;-75
2020/12/27 06:54:50;;;;;;;15.00;10.52;;;;;;;7.78;78.01;93667.03;5024342;28;20128;-75
2020/12/27 06:57:41;;;;;;;13.85;9.15;;;;;;;7.80;78.05;93667.56;5021392;28;20054;-75
2020/12/27 07:00:23;;;;;;;13.25;9.05;;;;;;;7.82;77.86;93672.53;5022080;28;20041;-75
2020/12/27 07:02:49;;;;;;;11.65;8.32;;;;;;;7.80;77.78;93658.88;5023013;28;20046;-75
2020/12/27 07:05:34;;;;;;;10.93;8.77;;;;;;;7.69;78.02;93658.16;5019684;28;20044;-76
2020/12/27 07:08:42;;;;;;;15.48;9.30;;;;;;;7.75;78.25;93682.59;5000462;28;20048;-75
2020/12/27 07:11:08;;;;;;;32.60;9.80;;;;;;;7.68;78.33;93671.59;5017060;28;20042;-75
2020/12/27 07:13:41;;;;;;;15.23;9.50;;;;;;;7.67;78.46;93672.66;5020613;28;20041;-75
2020/12/27 07:16:10;;;;;;;18.70;12.52;;;;;;;7.77;78.47;93673.38;5022146;28;20575;-75
2020/12/27 07:18:37;;;;;;;17.95;12.05;;;;;;;7.79;78.24;93667.84;5020893;28;20117;-75
2020/12/27 07:21:03;;;;;;;21.08;11.57;;;;;;;7.84;78.25;93662.53;5000135;28;20033;-75
2020/12/27 07:23:32;;;;;;;19.05;12.98;;;;;;;7.87;78.08;93653.34;5017377;28;20580;-75
2020/12/27 07:26:03;;;;;;;20.20;13.50;;;;;;;7.94;77.90;93654.56;5018894;28;20053;-76
2020/12/27 07:28:30;;;;;;;19.38;12.25;;;;;;;7.98;77.84;93647.69;5013087;28;20048;-76
2020/12/27 07:31:00;;;;;;;17.27;13.52;;;;;;;8.06;77.78;93652.34;5023730;28;20040;-75
2020/12/27 07:33:37;;;;;;;17.00;12.68;;;;;;;8.06;77.79;93636.56;5017482;28;20407;-76
2020/12/27 07:36:07;;;;;;;16.52;13.00;;;;;;;8.15;77.77;93639.41;5012320;28;20572;-75
2020/12/27 07:38:54;;;;;;;21.83;13.27;;;;;;;8.17;77.78;93647.78;5017568;28;20113;-75
2020/12/27 07:41:23;;;;;;;18.88;11.98;;;;;;;8.18;77.28;93658.06;5018861;28;20067;-75
2020/12/27 07:43:49;;;;;;;13.35;9.75;;;;;;;8.12;77.54;93627.56;5020181;28;20498;-75
2020/12/27 07:46:19;;;;;;;17.60;10.65;;;;;;;8.03;77.72;93626.59;5020133;28;20056;-75
2020/12/27 07:48:45;;;;;;;20.52;12.10;;;;;;;8.10;77.63;93634.19;5021512;28;20633;-75
2020/12/27 07:51:12;;;;;;;14.02;10.55;;;;;;;8.13;77.84;93631.00;5016968;28;20505;-75
2020/12/27 07:53:38;;;;;;;15.15;10.20;;;;;;;8.11;77.40;93633.88;5018511;28;20052;-75
2020/12/27 07:56:04;;;;;;;17.17;12.88;;;;;;;8.08;77.88;93644.97;5018028;28;20045;-76
2020/12/27 07:58:30;;;;;;;18.27;11.45;;;;;;;8.06;77.94;93639.19;4998203;28;20037;-77
2020/12/27 08:00:55;;;;;;;16.05;11.30;;;;;;;8.12;77.89;93643.38;5014828;28;20032;-76
2020/12/27 08:03:21;;;;;;;15.20;10.60;;;;;;;8.13;77.82;93631.78;5016641;28;20075;-75
2020/12/27 08:05:46;;;;;;;31.65;13.35;;;;;;;8.13;78.02;93634.41;5018388;28;20128;-75
2020/12/27 08:08:12;;;;;;;17.30;11.77;;;;;;;8.20;77.93;93636.72;5016634;28;20168;-75
2020/12/27 08:10:39;;;;;;;18.73;11.00;;;;;;;8.27;77.77;93647.72;5017453;28;20037;-75
2020/12/27 08:13:06;;;;;;;18.33;11.63;;;;;;;8.19;78.00;93630.69;5019133;28;20040;-75
2020/12/27 08:15:37;;;;;;;16.67;11.68;;;;;;;8.21;77.94;93623.28;5018520;28;20107;-75
2020/12/27 08:18:07;;;;;;;15.68;11.68;;;;;;;8.33;78.01;93619.53;5018170;28;20769;-75
2020/12/27 08:20:43;;;;;;;18.05;10.75;;;;;;;8.40;78.14;93615.50;5022164;28;20213;-75
2020/12/27 08:23:09;;;;;;;17.98;11.25;;;;;;;8.45;78.08;93618.09;5013226;28;20049;-75
2020/12/27 08:25:39;;;;;;;16.45;11.15;;;;;;;8.57;78.06;93599.25;5003405;28;20068;-75
2020/12/27 08:28:07;;;;;;;34.78;15.50;;;;;;;8.69;77.73;93608.34;5021960;28;20037;-76
2020/12/27 08:30:34;;;;;;;16.67;12.40;;;;;;;8.81;77.49;93615.84;5021229;28;20045;-75
2020/12/27 08:33:13;;;;;;;21.23;13.68;;;;;;;8.88;77.75;93611.03;5018553;28;21050;-75
2020/12/27 08:35:42;;;;;;;17.50;13.32;;;;;;;8.96;77.68;93607.75;5021739;28;20046;-75
2020/12/27 08:38:23;;;;;;;15.05;11.85;;;;;;;9.10;77.36;93607.84;5003078;28;20052;-75
2020/12/27 08:40:59;;;;;;;15.43;11.27;;;;;;;9.14;77.53;93601.72;5017749;28;20041;-75
2020/12/27 08:43:43;;;;;;;13.45;11.20;;;;;;;9.26;76.83;93600.50;5019899;28;20090;-75
2020/12/27 08:46:12;;;;;;;16.83;11.32;;;;;;;9.33;76.87;93600.97;5023087;28;20043;-75
2020/12/27 08:48:47;;;;;;;18.52;11.43;;;;;;;9.45;76.63;93601.31;5021471;28;20044;-75
2020/12/27 08:51:13;;;;;;;14.32;10.90;;;;;;;9.43;76.25;93595.53;5002425;28;20044;-75
2020/12/27 08:53:44;;;;;;;15.18;9.75;;;;;;;9.45;76.16;93598.66;5020401;28;20049;-76
2020/12/27 08:56:11;;;;;;;16.77;10.40;;;;;;;9.41;75.88;93600.31;5019605;28;20057;-75
2020/12/27 08:58:36;;;;;;;17.52;10.20;;;;;;;9.43;75.98;93611.38;5018701;28;20038;-76
2020/12/27 09:01:03;;;;;;;18.33;11.73;;;;;;;9.45;75.83;93593.38;5004286;28;21133;-76
2020/12/27 09:03:28;;;;;;;17.02;11.80;;;;;;;9.35;75.65;93594.31;5003314;28;20037;-75
2020/12/27 09:05:54;;;;;;;19.55;14.02;;;;;;;9.45;75.72;93603.94;5019878;28;20034;-76
2020/12/27 09:08:20;;;;;;;21.75;12.77;;;;;;;9.55;75.96;93603.78;5020945;28;20045;-76
2020/12/27 09:10:47;;;;;;;14.10;10.93;;;;;;;9.52;75.29;93609.66;5020188;28;20041;-76
2020/12/27 09:13:15;;;;;;;16.27;10.82;;;;;;;9.47;75.26;93599.16;5017574;28;20033;-75
2020/12/27 09:15:45;;;;;;;14.52;11.60;;;;;;;9.45;75.40;93590.75;5018784;28;20103;-76
2020/12/27 09:18:16;;;;;;;13.02;9.50;;;;;;;9.46;75.40;93592.31;5015819;28;20133;-76
2020/12/27 09:20:44;;;;;;;10.93;8.40;;;;;;;9.43;75.27;93598.19;5018216;28;20041;-75
2020/12/27 09:23:20;;;;;;;10.68;9.30;;;;;;;9.54;75.41;93581.13;5017873;28;20046;-75
2020/12/27 09:25:47;;;;;;;10.80;8.45;;;;;;;9.55;74.89;93567.66;5015513;28;20096;-75
2020/12/27 09:28:21;;;;;;;13.40;9.27;;;;;;;9.74;74.96;93564.97;5016171;28;20079;-77
2020/12/27 09:31:01;;;;;;;10.10;7.85;;;;;;;9.75;74.58;93574.47;5019242;28;20025;-76
2020/12/27 09:33:35;;;;;;;9.40;7.40;;;;;;;9.75;74.80;93549.94;5015209;28;20062;-75
2020/12/27 09:36:01;;;;;;;12.50;7.50;;;;;;;9.78;74.20;93558.03;5014274;28;20610;-77
2020/12/27 09:38:29;;;;;;;11.70;8.45;;;;;;;9.78;74.18;93538.78;5019350;28;20080;-76
2020/12/27 09:41:09;;;;;;;11.75;8.18;;;;;;;9.67;74.36;93526.84;4995625;28;20030;-77
2020/12/27 09:43:46;;;;;;;10.00;7.88;;;;;;;9.55;74.81;93519.38;5000877;28;20065;-76
2020/12/27 09:46:12;;;;;;;8.98;7.38;;;;;;;9.53;75.21;93532.06;5014144;28;20025;-76
2020/12/27 09:48:37;;;;;;;10.75;7.22;;;;;;;9.42;75.45;93523.56;5020692;28;20021;-76
2020/12/27 09:51:16;;;;;;;9.90;7.28;;;;;;;9.49;75.45;93510.75;5014503;28;20140;-76
2020/12/27 09:53:41;;;;;;;8.70;5.75;;;;;;;9.51;74.93;93502.56;5017405;28;20036;-77
2020/12/27 09:56:07;;;;;;;7.07;5.78;;;;;;;9.66;74.91;93504.97;5015697;28;20508;-75
2020/12/27 09:58:33;;;;;;;6.43;4.95;;;;;;;9.63;74.82;93500.25;5016317;28;20069;-76
2020/12/27 10:00:58;;;;;;;5.05;4.55;;;;;;;9.62;74.69;93508.47;5017331;28;20036;-76
2020/12/27 10:03:23;;;;;;;6.95;4.55;;;;;;;9.62;74.58;93498.69;5016112;28;20071;-75
2020/12/27 10:05:49;;;;;;;5.03;4.57;;;;;;;9.77;74.64;93484.47;5015238;28;20072;-75
2020/12/27 10:08:14;;;;;;;6.45;5.38;;;;;;;9.80;74.93;93495.22;5016949;28;20690;-75
2020/12/27 10:10:40;;;;;;;9.35;6.15;;;;;;;9.94;74.83;93496.03;5015017;28;20043;-77
2020/12/27 10:13:05;;;;;;;8.25;5.43;;;;;;;10.09;74.41;93504.75;5016379;28;20159;-76
2020/12/27 10:15:31;;;;;;;8.38;7.05;;;;;;;10.26;74.61;93499.72;5020005;28;20575;-76
2020/12/27 10:17:56;;;;;;;7.50;5.55;;;;;;;10.22;73.86;93496.06;5015250;28;20056;-77
2020/12/27 10:20:22;;;;;;;6.07;5.05;;;;;;;10.18;73.88;93503.00;5017157;28;20570;-76
2020/12/27 10:22:47;;;;;;;8.15;4.80;;;;;;;10.24;73.44;93504.50;5016882;28;20099;-75
2020/12/27 10:25:13;;;;;;;7.53;5.20;;;;;;;10.21;73.23;93513.00;5016824;28;20022;-75
2020/12/27 10:27:38;;;;;;;6.97;4.85;;;;;;;10.06;73.07;93508.75;5015825;28;20400;-76
2020/12/27 10:30:05;;;;;;;5.03;4.25;;;;;;;10.04;73.14;93489.00;5015751;28;20038;-75
2020/12/27 10:32:30;;;;;;;6.72;4.50;;;;;;;10.08;73.27;93479.41;5013601;28;20065;-76
2020/12/27 10:34:56;;;;;;;7.70;4.68;;;;;;;10.02;73.36;93490.06;5013942;28;20042;-76
2020/12/27 10:37:22;;;;;;;4.78;4.05;;;;;;;9.95;73.44;93489.69;5014434;28;20032;-76
2020/12/27 10:39:49;;;;;;;5.38;4.35;;;;;;;9.98;73.34;93477.72;5017757;28;20094;-75
2020/12/27 10:42:14;;;;;;;6.20;4.20;;;;;;;10.00;73.19;93457.91;5015181;28;20050;-76
2020/12/27 10:44:40;;;;;;;5.13;3.63;;;;;;;9.93;73.09;93462.78;5016913;28;20044;-75
2020/12/27 10:47:08;;;;;;;5.65;4.00;;;;;;;10.04;72.72;93465.22;5010358;28;20053;-75
2020/12/27 10:49:34;;;;;;;4.80;3.88;;;;;;;10.12;72.68;93465.31;5015276;28;20132;-78
2020/12/27 10:52:00;;;;;;;5.32;3.75;;;;;;;10.14;71.93;93446.56;5020147;28;20029;-77
2020/12/27 10:54:25;;;;;;;3.97;3.33;;;;;;;10.27;71.81;93433.38;5016725;28;20124;-75
2020/12/27 10:56:51;;;;;;;3.67;3.20;;;;;;;10.37;71.59;93435.03;4984585;28;20048;-76
2020/12/27 10:59:16;;;;;;;4.43;3.17;;;;;;;10.43;71.13;93433.84;5012491;28;20045;-75
2020/12/27 11:01:43;;;;;;;4.05;3.42;;;;;;;10.40;71.35;93418.59;5013252;28;20041;-78
2020/12/27 11:04:09;;;;;;;5.18;3.25;;;;;;;10.32;70.54;93412.13;5014843;28;20037;-76
2020/12/27 11:06:34;;;;;;;5.22;3.30;;;;;;;10.44;70.90;93406.38;5000459;28;20940;-76
2020/12/27 11:09:00;;;;;;;6.57;4.45;;;;;;;10.55;70.28;93402.44;5017168;28;20045;-75
2020/12/27 11:11:26;;;;;;;9.82;7.68;;;;;;;10.48;70.00;93399.41;5013595;28;20160;-75
2020/12/27 11:13:52;;;;;;;9.05;5.47;;;;;;;10.49;70.16;93384.34;5014571;28;20119;-76
2020/12/27 11:16:17;;;;;;;12.57;9.32;;;;;;;10.69;70.10;93389.97;4994794;28;20036;-74
2020/12/27 11:18:43;;;;;;;12.73;9.65;;;;;;;10.61;69.89;93371.38;5016662;28;20060;-75
2020/12/27 11:21:09;;;;;;;8.40;6.43;;;;;;;10.50;70.75;93373.47;4997853;28;20364;-76
2020/12/27 11:23:37;;;;;;;6.95;5.57;;;;;;;10.44;70.47;93374.66;5018608;28;20465;-75
2020/12/27 11:26:03;;;;;;;5.72;5.07;;;;;;;10.42;70.56;93372.31;5013751;28;20049;-76
2020/12/27 11:28:28;;;;;;;6.45;5.05;;;;;;;10.42;70.40;93368.88;5016765;28;20506;-75
2020/12/27 11:30:54;;;;;;;6.80;5.43;;;;;;;10.35;70.97;93369.31;5015810;28;20033;-75
2020/12/27 11:33:19;;;;;;;5.57;3.60;;;;;;;10.41;69.88;93346.19;5019421;28;20057;-76
2020/12/27 11:35:45;;;;;;;5.57;4.03;;;;;;;10.41;68.78;93319.78;5009552;28;20052;-77